LDZA/ZAG METAR and TAF weather

Enter ICAO airport designator
Station Type Date Time Source
LDZA METAR 2018/12/11 17:30 UTC NOAA

LDZA 111730Z 25004KT CAVOK 03/M00 Q1017 NOSIG


Station Type Date Time Source
LDZA Decoded METAR 2018/12/11 17:30 UTC NOAA

Zagreb / Pleso, Croatia (LDZA) 45-44N 016-04E 107M
Dec 11, 2018 - 12:30 PM EST / 2018.12.11 1730 UTC
Wind: from the WSW (250 degrees) at 5 MPH (4 KT):0
Visibility: greater than 7 mile(s):0
Temperature: 37 F (3 C)
Dew Point: 32 F (0 C)
Relative Humidity: 80%
Pressure (altimeter): 30.03 in. Hg (1017 hPa)
ob: LDZA 111730Z 25004KT CAVOK 03/M00 Q1017 NOSIG
cycle: 17

Station Type Date Time Source
LDZA TAF 2018/12/11 18:37 UTC NOAA

TAF LDZA 111733Z 1118/1218 25005KT 9999 SCT040 TX06/1213Z TNM02/1204Z


Example: see airport list